Time;durP1;ratioP1;P1;durP2;ratioP2;P2;SDS_P1;SDS_P2;PMS_P1;PMS_P2;Temp;Humidity;BMP_temperature;BMP_pressure;BME280_temperature;BME280_humidity;BME280_pressure;Samples;Min_cycle;Max_cycle;Signal;HPM_P1;HPM_P2
2023/06/23 00:00:49;;;;;;;15.43;13.00;;;;;;;25.82;81.75;100214.53;5100848;28;20531;-69
2023/06/23 00:03:15;;;;;;;14.30;11.82;;;;;;;25.94;81.52;100229.16;5091145;28;20181;-69
2023/06/23 00:05:40;;;;;;;15.63;12.38;;;;;;;25.88;81.48;100225.44;5091412;28;20383;-69
2023/06/23 00:08:06;;;;;;;17.80;13.30;;;;;;;25.89;81.61;100235.34;5096240;28;20058;-69
2023/06/23 00:10:31;;;;;;;17.02;12.70;;;;;;;25.69;81.75;100209.25;5091118;28;20039;-68
2023/06/23 00:12:57;;;;;;;16.42;12.52;;;;;;;25.86;81.77;100237.75;5095813;28;20107;-69
2023/06/23 00:15:22;;;;;;;13.95;12.55;;;;;;;25.76;81.82;100221.00;5097023;28;20028;-68
2023/06/23 00:17:49;;;;;;;14.23;12.80;;;;;;;25.83;82.03;100235.47;5103158;28;20074;-69
2023/06/23 00:20:15;;;;;;;17.98;13.32;;;;;;;25.77;82.12;100212.53;5102218;28;20031;-68
2023/06/23 00:22:43;;;;;;;14.90;12.77;;;;;;;25.79;82.43;100220.53;5091823;28;20762;-69
2023/06/23 00:25:10;;;;;;;14.82;12.43;;;;;;;25.77;82.44;100215.28;5099667;28;20136;-68
2023/06/23 00:27:46;;;;;;;15.70;13.13;;;;;;;25.73;82.55;100213.22;5101066;28;20539;-69
2023/06/23 00:30:12;;;;;;;14.57;12.90;;;;;;;25.74;82.90;100218.47;5103848;28;20039;-68
2023/06/23 00:32:39;;;;;;;19.25;13.80;;;;;;;25.71;83.08;100215.34;5105479;28;20070;-69
2023/06/23 00:35:06;;;;;;;13.65;12.25;;;;;;;25.67;83.09;100203.16;5097926;28;20056;-68
2023/06/23 00:37:32;;;;;;;14.25;12.30;;;;;;;25.57;83.20;100191.91;5105064;28;20028;-69
2023/06/23 00:39:58;;;;;;;14.50;13.00;;;;;;;25.64;83.38;100203.63;5102994;28;20077;-69
2023/06/23 00:42:24;;;;;;;14.82;12.75;;;;;;;25.60;83.32;100199.69;5097588;28;20036;-69
2023/06/23 00:44:49;;;;;;;15.10;12.73;;;;;;;25.59;83.81;100206.22;5091147;28;20043;-69
2023/06/23 00:47:18;;;;;;;13.27;11.63;;;;;;;25.56;83.72;100202.06;5104457;28;20046;-68
2023/06/23 00:49:45;;;;;;;13.50;12.18;;;;;;;25.56;83.67;100198.47;5090040;28;20023;-69
2023/06/23 00:52:10;;;;;;;15.05;13.13;;;;;;;25.53;83.89;100194.28;5102279;28;20043;-69
2023/06/23 00:54:36;;;;;;;13.57;12.18;;;;;;;25.49;83.85;100189.47;5094486;28;20092;-68
2023/06/23 00:57:05;;;;;;;14.23;12.73;;;;;;;25.52;84.07;100202.75;5098057;28;20039;-69
2023/06/23 00:59:31;;;;;;;16.33;12.68;;;;;;;25.49;84.05;100206.81;5103246;28;20036;-68
2023/06/23 01:02:01;;;;;;;14.65;12.57;;;;;;;25.47;84.26;100205.38;5103433;28;20106;-69
2023/06/23 01:04:29;;;;;;;15.20;13.63;;;;;;;25.47;84.41;100213.63;5098255;28;20042;-69
2023/06/23 01:07:09;;;;;;;17.17;12.95;;;;;;;25.31;84.64;100189.56;5097337;28;20063;-68
2023/06/23 01:09:39;;;;;;;14.13;12.63;;;;;;;25.40;84.85;100205.47;5095449;28;20671;-68
2023/06/23 01:12:17;;;;;;;19.50;12.57;;;;;;;25.38;84.72;100212.25;5096786;28;20028;-68
2023/06/23 01:15:01;;;;;;;17.23;13.30;;;;;;;25.37;84.97;100216.09;5103428;28;20435;-68
2023/06/23 01:17:35;;;;;;;16.65;13.20;;;;;;;25.34;85.22;100205.56;5093318;28;20047;-68
2023/06/23 01:20:30;;;;;;;14.50;13.00;;;;;;;25.33;85.09;100209.38;5087534;28;20054;-68
2023/06/23 01:23:01;;;;;;;16.63;12.98;;;;;;;25.31;85.57;100197.78;5087366;28;20479;-69
2023/06/23 01:25:27;;;;;;;14.57;13.15;;;;;;;25.28;85.51;100192.72;5095439;28;20542;-69
2023/06/23 01:28:17;;;;;;;19.52;13.10;;;;;;;25.25;85.96;100187.72;5108012;28;20030;-68
2023/06/23 01:30:47;;;;;;;17.67;12.65;;;;;;;25.22;86.04;100193.66;5094166;28;20040;-68
2023/06/23 01:33:18;;;;;;;13.25;11.68;;;;;;;25.24;86.10;100202.50;5104987;28;20379;-68
2023/06/23 01:35:48;;;;;;;14.07;12.57;;;;;;;25.15;86.26;100180.00;5099431;28;20028;-68
2023/06/23 01:38:27;;;;;;;16.40;12.93;;;;;;;25.21;86.42;100192.81;5099418;28;20098;-69
2023/06/23 01:40:57;;;;;;;15.23;12.57;;;;;;;25.16;86.40;100189.09;5105271;28;20115;-68
2023/06/23 01:43:29;;;;;;;16.45;13.00;;;;;;;25.16;86.41;100198.19;5101477;28;20656;-68
2023/06/23 01:46:13;;;;;;;15.52;12.10;;;;;;;25.13;86.50;100195.91;5101944;28;20032;-68
2023/06/23 01:48:42;;;;;;;19.17;13.27;;;;;;;25.10;86.72;100195.50;5106979;28;20040;-68
2023/06/23 01:51:09;;;;;;;18.55;12.32;;;;;;;25.09;86.83;100210.31;5098552;28;20047;-68
2023/06/23 01:53:34;;;;;;;16.60;12.65;;;;;;;24.94;86.95;100190.66;5094397;28;20046;-68
2023/06/23 01:56:04;;;;;;;15.02;13.20;;;;;;;25.05;87.03;100212.66;5105342;28;20035;-68
2023/06/23 01:58:33;;;;;;;19.25;13.35;;;;;;;25.03;87.19;100213.97;5093746;28;20494;-68
2023/06/23 02:00:59;;;;;;;16.05;12.88;;;;;;;24.89;87.63;100190.50;5086095;28;20024;-69
2023/06/23 02:03:27;;;;;;;16.20;13.52;;;;;;;24.99;87.87;100208.09;5089622;28;20111;-68
2023/06/23 02:05:55;;;;;;;17.33;13.10;;;;;;;24.94;88.34;100204.38;5089508;28;20114;-69
2023/06/23 02:08:23;;;;;;;15.85;13.60;;;;;;;24.98;88.49;100208.34;5087992;28;20032;-68
2023/06/23 02:10:51;;;;;;;15.95;12.57;;;;;;;24.87;88.57;100193.50;5088406;28;20028;-68
2023/06/23 02:13:19;;;;;;;15.80;12.65;;;;;;;24.94;88.57;100190.66;5090368;28;20094;-68
2023/06/23 02:15:46;;;;;;;15.93;13.05;;;;;;;24.90;88.65;100192.19;5086081;28;20032;-69
2023/06/23 02:18:14;;;;;;;18.48;12.52;;;;;;;24.89;88.60;100191.34;5084725;28;20028;-69
2023/06/23 02:20:42;;;;;;;14.30;12.85;;;;;;;24.88;88.61;100189.66;5088891;28;20069;-69
2023/06/23 02:23:08;;;;;;;16.45;13.50;;;;;;;24.83;88.56;100177.72;5093797;28;20097;-68
2023/06/23 02:25:35;;;;;;;16.02;13.45;;;;;;;24.86;88.65;100188.22;5088622;28;20058;-68
2023/06/23 02:28:01;;;;;;;16.55;13.52;;;;;;;24.81;88.44;100183.44;5089829;28;20052;-69
2023/06/23 02:30:28;;;;;;;14.90;13.00;;;;;;;24.80;88.56;100189.16;5089952;28;20027;-68
2023/06/23 02:32:54;;;;;;;17.65;13.80;;;;;;;24.77;88.49;100186.84;5087019;28;20032;-68
2023/06/23 02:35:20;;;;;;;16.15;13.80;;;;;;;24.81;88.66;100201.78;5088263;28;20102;-68
2023/06/23 02:37:54;;;;;;;16.30;13.02;;;;;;;24.72;88.87;100189.44;5087386;28;20124;-68
2023/06/23 02:40:23;;;;;;;18.40;13.20;;;;;;;24.77;88.70;100190.44;5089568;28;20372;-68
2023/06/23 02:43:22;;;;;;;14.10;12.68;;;;;;;24.75;88.63;100195.31;5095009;28;20047;-68
2023/06/23 02:45:52;;;;;;;17.00;12.40;;;;;;;24.66;88.65;100180.22;5089682;28;20066;-68
2023/06/23 02:48:21;;;;;;;16.67;13.35;;;;;;;24.71;88.82;100196.00;5086550;28;20039;-68
2023/06/23 02:50:48;;;;;;;17.50;13.55;;;;;;;24.70;88.92;100199.81;5087751;28;20391;-68
2023/06/23 02:53:20;;;;;;;13.60;12.23;;;;;;;24.68;88.84;100204.69;5090990;28;20019;-68
2023/06/23 02:55:50;;;;;;;17.23;12.07;;;;;;;24.67;88.93;100209.34;5092687;28;20424;-68
2023/06/23 02:58:17;;;;;;;14.45;12.95;;;;;;;24.55;88.76;100193.81;5085719;28;20048;-68
2023/06/23 03:00:44;;;;;;;14.80;13.23;;;;;;;24.57;88.91;100197.19;5096049;28;20517;-68
2023/06/23 03:03:14;;;;;;;18.23;13.68;;;;;;;24.65;88.91;100213.38;5091956;28;20102;-69
2023/06/23 03:05:40;;;;;;;16.17;11.90;;;;;;;24.62;88.93;100213.78;5084145;28;20464;-69
2023/06/23 03:08:06;;;;;;;14.65;13.10;;;;;;;24.61;88.84;100195.66;5088741;28;20119;-69
2023/06/23 03:10:32;;;;;;;14.30;12.75;;;;;;;24.54;88.65;100186.69;5096708;28;20428;-69
2023/06/23 03:13:00;;;;;;;13.48;12.05;;;;;;;24.59;88.69;100195.03;5106767;28;20063;-69
2023/06/23 03:15:26;;;;;;;16.98;12.65;;;;;;;24.55;88.61;100186.44;5093172;28;20031;-69
2023/06/23 03:18:03;;;;;;;15.95;13.30;;;;;;;24.53;88.70;100190.50;5093916;28;20383;-69
2023/06/23 03:20:44;;;;;;;15.65;13.70;;;;;;;24.58;88.83;100204.34;5100059;28;20047;-69
2023/06/23 03:23:14;;;;;;;15.30;12.45;;;;;;;24.56;88.87;100207.31;5101168;28;20044;-68
2023/06/23 03:25:41;;;;;;;16.08;13.10;;;;;;;24.56;88.97;100201.81;5090990;28;20023;-69
2023/06/23 03:28:12;;;;;;;17.13;13.43;;;;;;;24.43;89.01;100183.63;5098944;28;20114;-69
2023/06/23 03:30:45;;;;;;;17.20;13.18;;;;;;;24.48;88.97;100198.56;5095199;28;20027;-69
2023/06/23 03:33:18;;;;;;;17.27;13.27;;;;;;;24.44;89.30;100196.25;5088111;28;20042;-69
2023/06/23 03:35:46;;;;;;;17.37;13.10;;;;;;;24.53;89.50;100213.25;5087896;28;20857;-69
2023/06/23 03:38:17;;;;;;;14.63;12.77;;;;;;;24.53;89.91;100217.91;5095710;28;20027;-69
2023/06/23 03:40:50;;;;;;;13.27;11.82;;;;;;;24.53;89.77;100226.97;5085430;28;20031;-69
2023/06/23 03:43:35;;;;;;;15.32;12.80;;;;;;;24.51;89.62;100220.88;5087876;28;20032;-69
2023/06/23 03:46:06;;;;;;;14.77;12.63;;;;;;;24.46;89.60;100204.25;5086994;28;20055;-69
2023/06/23 03:48:36;;;;;;;13.90;12.43;;;;;;;24.48;89.92;100202.97;5103276;28;20063;-69
2023/06/23 03:51:03;;;;;;;18.98;12.88;;;;;;;24.57;89.87;100209.00;5096631;28;20032;-68
2023/06/23 03:53:31;;;;;;;17.58;12.48;;;;;;;24.56;89.94;100206.50;5086264;28;20035;-69
2023/06/23 03:55:59;;;;;;;14.60;12.23;;;;;;;24.57;89.80;100205.41;5101383;28;20043;-69
2023/06/23 03:58:25;;;;;;;18.23;11.30;;;;;;;24.58;89.82;100196.13;5088239;28;20028;-69
2023/06/23 04:00:53;;;;;;;18.05;12.20;;;;;;;24.60;89.69;100191.25;5105357;28;20084;-67
2023/06/23 04:03:21;;;;;;;18.63;12.07;;;;;;;24.61;89.89;100190.19;5100166;28;20422;-67
2023/06/23 04:05:48;;;;;;;14.55;12.27;;;;;;;24.61;89.69;100188.28;5091822;28;20031;-67
2023/06/23 04:08:16;;;;;;;13.55;12.15;;;;;;;24.62;89.71;100181.72;5087828;28;20070;-67
2023/06/23 04:10:43;;;;;;;17.00;12.95;;;;;;;24.65;89.78;100186.78;5090315;28;20026;-67
2023/06/23 04:13:10;;;;;;;17.85;12.52;;;;;;;24.67;89.62;100176.44;5085329;28;20044;-67
2023/06/23 04:15:38;;;;;;;19.00;13.48;;;;;;;24.68;89.45;100182.75;5099158;28;20023;-68
2023/06/23 04:18:06;;;;;;;15.40;11.93;;;;;;;24.71;89.25;100179.53;5092001;28;20107;-67
2023/06/23 04:20:33;;;;;;;16.90;12.10;;;;;;;24.75;89.20;100188.97;5087839;28;20093;-67
2023/06/23 04:23:00;;;;;;;15.82;11.93;;;;;;;24.80;89.01;100198.22;5084928;28;20043;-67
2023/06/23 04:25:26;;;;;;;17.27;11.90;;;;;;;24.83;88.87;100200.50;5103711;28;20051;-68
2023/06/23 04:27:58;;;;;;;16.52;12.07;;;;;;;24.87;88.62;100204.47;5089854;28;20063;-68
2023/06/23 04:30:26;;;;;;;15.35;11.68;;;;;;;24.92;88.49;100203.78;5090611;28;20055;-68
2023/06/23 04:32:52;;;;;;;14.30;11.65;;;;;;;24.95;88.20;100211.56;5096191;28;20493;-68
2023/06/23 04:35:17;;;;;;;15.40;12.07;;;;;;;24.93;88.19;100214.53;5100522;28;20038;-68
2023/06/23 04:37:45;;;;;;;14.30;12.15;;;;;;;25.06;87.63;100219.00;5092899;28;20012;-68
2023/06/23 04:40:29;;;;;;;13.70;12.07;;;;;;;25.10;87.40;100225.69;5099384;28;20032;-68
2023/06/23 04:43:18;;;;;;;14.48;11.93;;;;;;;25.15;87.21;100215.69;5101002;28;20059;-68
2023/06/23 04:45:54;;;;;;;12.98;10.90;;;;;;;25.21;86.88;100217.53;5093448;28;20035;-68
2023/06/23 04:48:25;;;;;;;14.20;11.48;;;;;;;25.25;86.84;100213.25;5088466;28;20028;-67
2023/06/23 04:50:54;;;;;;;14.07;12.38;;;;;;;25.25;86.64;100212.41;5101693;28;20046;-68
2023/06/23 04:53:23;;;;;;;12.65;11.32;;;;;;;25.41;86.14;100231.03;5092948;28;20023;-67
2023/06/23 04:55:53;;;;;;;15.13;12.07;;;;;;;25.48;86.33;100231.75;5095650;28;20035;-68
2023/06/23 04:58:22;;;;;;;16.83;12.80;;;;;;;25.49;85.50;100225.19;5096315;28;20522;-68
2023/06/23 05:00:51;;;;;;;15.73;12.38;;;;;;;25.49;85.25;100211.47;5107586;28;20394;-68
2023/06/23 05:03:17;;;;;;;12.13;10.70;;;;;;;25.76;84.96;100232.81;5105713;28;20459;-67
2023/06/23 05:05:44;;;;;;;14.13;11.95;;;;;;;25.85;84.08;100234.16;5094596;28;20378;-67
2023/06/23 05:08:12;;;;;;;14.15;11.90;;;;;;;25.94;83.16;100240.16;5096202;28;20107;-67
2023/06/23 05:10:40;;;;;;;13.25;11.52;;;;;;;25.98;82.88;100241.38;5087664;28;20038;-68
2023/06/23 05:13:10;;;;;;;13.98;11.65;;;;;;;26.12;82.53;100256.59;5099463;28;20467;-68
2023/06/23 05:15:36;;;;;;;12.70;11.32;;;;;;;26.22;81.55;100251.34;5099779;28;20023;-67
2023/06/23 05:18:05;;;;;;;11.82;10.60;;;;;;;26.34;80.47;100249.41;5092399;28;20031;-68
2023/06/23 05:20:32;;;;;;;18.35;12.20;;;;;;;26.45;79.07;100238.44;5093706;28;20040;-68
2023/06/23 05:22:58;;;;;;;12.10;10.90;;;;;;;26.56;78.23;100236.75;5097738;28;20301;-69
2023/06/23 05:25:29;;;;;;;14.32;10.98;;;;;;;26.54;78.13;100219.66;5093710;28;20355;-68
2023/06/23 05:28:00;;;;;;;12.73;10.73;;;;;;;26.76;78.16;100240.00;5106905;28;20031;-70
2023/06/23 05:30:27;;;;;;;12.70;11.30;;;;;;;26.85;77.72;100246.81;5101147;28;20028;-68
2023/06/23 05:32:56;;;;;;;12.23;11.00;;;;;;;26.98;76.32;100248.47;5101006;28;20506;-68
2023/06/23 05:35:23;;;;;;;16.10;11.32;;;;;;;27.06;75.98;100226.91;5101309;28;20031;-68
2023/06/23 05:37:50;;;;;;;13.75;11.18;;;;;;;27.13;75.50;100219.34;5095859;28;20044;-68
2023/06/23 05:40:16;;;;;;;14.23;10.88;;;;;;;27.30;74.74;100225.75;5106367;28;20031;-68
2023/06/23 05:42:42;;;;;;;15.32;11.75;;;;;;;27.29;74.09;100213.09;5095363;28;20391;-68
2023/06/23 05:45:10;;;;;;;12.95;11.45;;;;;;;27.49;73.52;100231.91;5093828;28;20104;-68
2023/06/23 05:47:57;;;;;;;14.70;11.20;;;;;;;27.58;72.44;100233.19;5098773;28;20464;-68
2023/06/23 05:50:33;;;;;;;12.57;11.40;;;;;;;27.70;71.81;100245.81;5091245;28;20096;-68
2023/06/23 05:53:08;;;;;;;13.40;10.75;;;;;;;27.78;71.01;100239.06;5099506;28;20044;-68
2023/06/23 05:55:41;;;;;;;12.73;11.40;;;;;;;27.89;70.69;100238.22;5098614;28;20020;-68
2023/06/23 05:58:10;;;;;;;14.07;11.43;;;;;;;27.96;70.20;100230.63;5097566;28;20379;-68
2023/06/23 06:00:45;;;;;;;12.25;11.05;;;;;;;28.02;69.46;100227.69;5087252;28;20067;-68
2023/06/23 06:03:14;;;;;;;11.70;10.50;;;;;;;28.11;69.34;100228.09;5091717;28;20043;-70
2023/06/23 06:05:46;;;;;;;14.25;11.45;;;;;;;28.16;68.51;100226.28;5090664;28;20027;-68
2023/06/23 06:08:12;;;;;;;13.13;11.45;;;;;;;28.29;67.98;100225.94;5090356;28;20032;-70
2023/06/23 06:10:39;;;;;;;14.23;11.02;;;;;;;28.39;66.53;100223.34;5094267;28;20035;-68
2023/06/23 06:13:06;;;;;;;13.13;11.25;;;;;;;28.51;66.33;100220.53;5096587;28;20106;-68
2023/06/23 06:15:33;;;;;;;13.07;11.43;;;;;;;28.66;66.11;100236.47;5097189;28;20055;-69
2023/06/23 06:18:03;;;;;;;12.40;11.20;;;;;;;28.75;65.68;100221.16;5088967;28;20062;-68
2023/06/23 06:20:31;;;;;;;12.95;11.52;;;;;;;28.84;65.19;100211.31;5094559;28;20056;-68
2023/06/23 06:22:57;;;;;;;17.33;12.02;;;;;;;28.86;64.82;100198.09;5102415;28;20146;-68
2023/06/23 06:25:25;;;;;;;12.45;11.23;;;;;;;29.06;64.53;100218.56;5101218;28;20162;-69
2023/06/23 06:27:53;;;;;;;14.48;11.25;;;;;;;29.06;63.68;100185.41;5098273;28;20498;-69
2023/06/23 06:30:21;;;;;;;12.95;10.68;;;;;;;29.22;62.60;100195.53;5094695;28;20055;-69
2023/06/23 06:32:48;;;;;;;12.55;11.25;;;;;;;29.39;62.25;100195.44;5084286;28;20119;-69
2023/06/23 06:35:17;;;;;;;15.95;11.57;;;;;;;29.45;62.29;100191.63;5097913;28;20034;-69
2023/06/23 06:37:47;;;;;;;12.60;11.30;;;;;;;29.56;61.83;100187.91;5088589;28;20422;-69
2023/06/23 06:40:15;;;;;;;13.07;11.70;;;;;;;29.63;61.91;100194.06;5084406;28;20035;-69
2023/06/23 06:42:41;;;;;;;13.75;11.82;;;;;;;29.71;61.79;100188.91;5082439;28;20200;-69
2023/06/23 06:45:07;;;;;;;11.80;10.70;;;;;;;29.82;61.51;100192.59;5100221;28;20489;-69
2023/06/23 06:47:40;;;;;;;15.30;11.40;;;;;;;29.92;61.65;100193.50;5097479;28;20031;-69
2023/06/23 06:50:07;;;;;;;13.02;11.73;;;;;;;30.04;61.19;100198.84;5089313;28;20024;-69
2023/06/23 06:52:35;;;;;;;12.52;10.50;;;;;;;30.16;60.33;100188.44;5083563;28;20081;-69
2023/06/23 06:55:02;;;;;;;12.57;11.35;;;;;;;30.24;59.76;100183.28;5091515;28;20115;-69
2023/06/23 06:57:29;;;;;;;13.15;11.30;;;;;;;30.36;60.08;100183.09;5093544;28;20479;-69
2023/06/23 06:59:54;;;;;;;12.40;10.75;;;;;;;30.43;60.13;100184.53;5096512;28;20076;-69
2023/06/23 07:02:20;;;;;;;12.93;11.60;;;;;;;30.47;59.61;100168.22;5098996;28;20080;-69
2023/06/23 07:04:46;;;;;;;12.15;10.95;;;;;;;30.60;59.31;100179.63;5095215;28;20474;-70
2023/06/23 07:07:14;;;;;;;11.85;10.65;;;;;;;30.60;59.13;100151.94;5103342;28;20027;-69
2023/06/23 07:09:40;;;;;;;11.75;10.55;;;;;;;30.76;59.15;100172.28;5105501;28;20045;-70
2023/06/23 07:12:06;;;;;;;11.77;10.48;;;;;;;30.86;58.58;100164.03;5102553;28;20032;-69
2023/06/23 07:14:32;;;;;;;14.45;10.57;;;;;;;30.93;58.30;100161.00;5085411;28;20035;-69
2023/06/23 07:16:57;;;;;;;13.70;10.50;;;;;;;31.08;57.76;100163.84;5093203;28;20036;-69
2023/06/23 07:19:23;;;;;;;11.48;10.10;;;;;;;31.17;57.67;100157.47;5087939;28;20020;-69
2023/06/23 07:21:48;;;;;;;11.45;10.15;;;;;;;31.29;57.19;100166.41;5087630;28;20044;-69
2023/06/23 07:24:14;;;;;;;10.55;9.45;;;;;;;31.30;56.61;100162.53;5094682;28;20024;-69
2023/06/23 07:26:40;;;;;;;15.98;10.23;;;;;;;31.36;56.57;100161.44;5087875;28;20577;-69
2023/06/23 07:29:06;;;;;;;10.65;9.10;;;;;;;31.44;56.18;100158.16;5092876;28;20024;-69
2023/06/23 07:31:33;;;;;;;12.48;9.88;;;;;;;31.52;56.22;100160.34;5094207;28;20615;-69
2023/06/23 07:33:58;;;;;;;14.07;10.25;;;;;;;31.60;55.92;100167.31;5090159;28;20107;-69
2023/06/23 07:36:23;;;;;;;11.93;9.93;;;;;;;31.71;55.72;100163.44;5101029;28;20083;-69
2023/06/23 07:38:49;;;;;;;13.38;10.10;;;;;;;31.82;55.64;100170.69;5098243;28;20035;-69
2023/06/23 07:41:14;;;;;;;12.40;10.05;;;;;;;31.90;55.33;100159.03;5102312;28;20050;-69
2023/06/23 07:43:43;;;;;;;12.80;10.18;;;;;;;32.00;54.50;100154.31;5092314;28;20028;-69
2023/06/23 07:46:09;;;;;;;13.07;9.68;;;;;;;32.11;53.97;100161.50;5097289;28;20128;-69
2023/06/23 07:48:35;;;;;;;10.50;9.40;;;;;;;32.16;53.18;100155.97;5097997;28;20019;-69
2023/06/23 07:51:00;;;;;;;10.55;9.45;;;;;;;32.21;53.36;100155.94;5099467;28;20054;-69
2023/06/23 07:53:26;;;;;;;11.00;9.63;;;;;;;32.28;53.83;100159.25;5096531;28;20570;-71
2023/06/23 07:55:52;;;;;;;14.43;10.02;;;;;;;32.35;53.92;100157.09;5086711;28;20430;-71
2023/06/23 07:58:18;;;;;;;13.50;10.13;;;;;;;32.42;53.04;100162.34;5093563;28;20542;-68
2023/06/23 08:00:43;;;;;;;13.88;10.13;;;;;;;32.50;53.23;100145.91;5100602;28;20039;-72
2023/06/23 08:03:09;;;;;;;10.77;9.68;;;;;;;32.58;53.17;100153.69;5097148;28;20471;-71
2023/06/23 08:05:34;;;;;;;10.67;9.57;;;;;;;32.65;52.41;100155.34;4748139;28;10000532;-69
2023/06/23 08:07:59;;;;;;;10.70;9.40;;;;;;;32.75;51.62;100146.97;5093506;28;20395;-69
2023/06/23 08:10:25;;;;;;;12.07;10.38;;;;;;;32.77;51.27;100140.00;5095982;28;20027;-69
2023/06/23 08:12:50;;;;;;;12.57;9.30;;;;;;;32.86;50.86;100143.91;5090751;28;20028;-69
2023/06/23 08:15:16;;;;;;;11.52;9.48;;;;;;;32.94;50.68;100139.69;5095589;28;20035;-69
2023/06/23 08:17:41;;;;;;;9.60;8.60;;;;;;;33.03;50.60;100149.09;5098669;28;20024;-69
2023/06/23 08:20:07;;;;;;;16.23;9.93;;;;;;;33.14;50.23;100147.94;5099606;28;20042;-69
2023/06/23 08:22:33;;;;;;;11.43;8.85;;;;;;;33.21;50.58;100134.53;5097519;28;20043;-69
2023/06/23 08:24:58;;;;;;;9.77;8.70;;;;;;;33.28;50.58;100140.59;5098318;28;20046;-69
2023/06/23 08:27:23;;;;;;;11.88;9.50;;;;;;;33.37;50.02;100130.59;5102363;28;20024;-69
2023/06/23 08:29:49;;;;;;;13.48;10.40;;;;;;;33.43;50.03;100129.44;5094748;28;20039;-69
2023/06/23 08:32:16;;;;;;;12.10;9.75;;;;;;;33.49;49.46;100125.50;5091332;28;20050;-69
2023/06/23 08:34:41;;;;;;;10.57;9.50;;;;;;;33.52;48.58;100120.16;5100764;28;20032;-69
2023/06/23 08:37:07;;;;;;;12.13;9.98;;;;;;;33.58;48.23;100130.16;5100658;28;20024;-69
2023/06/23 08:39:32;;;;;;;18.33;10.75;;;;;;;33.60;47.67;100122.34;5101756;28;20410;-69
2023/06/23 08:41:58;;;;;;;13.15;10.77;;;;;;;33.65;47.77;100127.00;5093410;28;20293;-70
2023/06/23 08:44:28;;;;;;;12.95;10.75;;;;;;;33.67;47.60;100130.34;5096994;28;20576;-68
2023/06/23 08:46:58;;;;;;;11.05;10.05;;;;;;;33.74;47.49;100131.69;5099863;28;20032;-69
2023/06/23 08:49:24;;;;;;;15.45;11.95;;;;;;;33.81;47.10;100128.56;5094537;28;20039;-69
2023/06/23 08:51:50;;;;;;;13.55;10.60;;;;;;;33.91;47.08;100117.34;5099945;28;20518;-69
2023/06/23 08:54:16;;;;;;;13.70;11.50;;;;;;;33.99;47.42;100113.97;5094781;28;20027;-69
2023/06/23 08:56:45;;;;;;;12.38;11.05;;;;;;;34.06;46.32;100123.63;5092792;28;20034;-69
2023/06/23 08:59:12;;;;;;;13.52;11.13;;;;;;;34.03;45.73;100117.81;5099015;28;20433;-70
2023/06/23 09:01:37;;;;;;;13.32;11.68;;;;;;;34.10;45.81;100113.56;5099259;28;20030;-69
2023/06/23 09:04:03;;;;;;;14.60;11.70;;;;;;;34.16;45.36;100119.91;5094637;28;20479;-70
2023/06/23 09:06:28;;;;;;;12.98;11.57;;;;;;;34.22;45.37;100114.00;5102717;28;20027;-69
2023/06/23 09:08:55;;;;;;;15.55;10.75;;;;;;;34.27;45.22;100110.34;5093243;28;20111;-70
2023/06/23 09:11:21;;;;;;;11.90;10.80;;;;;;;34.33;45.24;100109.97;5098261;28;20439;-69
2023/06/23 09:13:49;;;;;;;13.65;12.25;;;;;;;34.37;45.12;100104.69;5088978;28;20123;-70
2023/06/23 09:16:15;;;;;;;14.55;12.23;;;;;;;34.44;45.45;100103.19;5089983;28;20081;-70
2023/06/23 09:18:48;;;;;;;12.88;11.65;;;;;;;34.51;45.10;100105.63;5095360;28;20102;-70
2023/06/23 09:21:14;;;;;;;13.93;12.38;;;;;;;34.53;44.96;100101.41;5101954;27;20094;-69
2023/06/23 09:24:03;;;;;;;13.43;11.85;;;;;;;34.59;44.62;100097.44;5091024;28;20043;-70
2023/06/23 09:26:29;;;;;;;15.48;13.02;;;;;;;34.68;44.63;100107.97;5099636;28;20367;-70
2023/06/23 09:29:23;;;;;;;15.57;13.88;;;;;;;34.70;44.58;100097.31;5096316;28;20055;-70
2023/06/23 09:31:51;;;;;;;15.05;13.32;;;;;;;34.65;44.45;100083.47;5094534;28;20027;-70
2023/06/23 09:34:23;;;;;;;14.98;13.38;;;;;;;34.78;44.56;100099.47;5100782;28;20031;-71
2023/06/23 09:36:50;;;;;;;13.30;11.98;;;;;;;34.81;44.39;100094.09;5093110;28;20028;-70
2023/06/23 09:39:16;;;;;;;13.30;12.02;;;;;;;34.87;44.39;100098.50;5096845;28;20027;-70
2023/06/23 09:41:57;;;;;;;15.63;13.68;;;;;;;34.93;44.42;100102.06;5102224;28;20042;-70
2023/06/23 09:44:32;;;;;;;17.65;14.50;;;;;;;34.98;44.26;100094.44;5097594;28;20031;-70
2023/06/23 09:47:02;;;;;;;16.55;14.68;;;;;;;35.05;44.09;100099.66;5098633;28;20415;-70
2023/06/23 09:49:28;;;;;;;16.83;13.02;;;;;;;34.93;43.94;100085.34;5098250;28;20082;-70
2023/06/23 09:51:54;;;;;;;14.65;12.90;;;;;;;35.06;44.13;100102.16;5096751;28;20055;-69
2023/06/23 09:54:32;;;;;;;14.32;12.90;;;;;;;35.09;43.62;100100.72;5102979;28;20032;-70
2023/06/23 09:57:07;;;;;;;14.68;13.13;;;;;;;35.16;43.48;100099.22;5099171;28;20028;-70
2023/06/23 09:59:36;;;;;;;16.00;14.50;;;;;;;35.13;43.39;100088.66;5095498;28;20035;-70
2023/06/23 10:02:02;;;;;;;15.55;13.90;;;;;;;35.19;43.39;100083.84;5093259;28;20040;-70
2023/06/23 10:04:31;;;;;;;14.35;13.05;;;;;;;35.19;43.59;100101.41;5095716;28;20064;-69
2023/06/23 10:06:57;;;;;;;15.30;13.73;;;;;;;35.22;43.24;100102.75;5094137;28;20058;-69
2023/06/23 10:09:25;;;;;;;14.60;13.10;;;;;;;35.27;42.83;100097.94;5101335;28;20074;-70
2023/06/23 10:11:52;;;;;;;15.05;13.50;;;;;;;35.29;43.21;100098.47;5104291;28;20042;-69
2023/06/23 10:14:18;;;;;;;18.73;13.77;;;;;;;35.32;42.45;100097.03;5096304;28;20028;-69
2023/06/23 10:16:44;;;;;;;15.00;13.55;;;;;;;35.38;42.43;100098.66;5093160;28;20059;-69
2023/06/23 10:19:11;;;;;;;16.27;13.90;;;;;;;35.26;42.19;100071.16;5093312;28;20028;-70
2023/06/23 10:21:36;;;;;;;15.63;13.88;;;;;;;35.38;41.72;100081.91;5094350;28;20111;-70
2023/06/23 10:24:04;;;;;;;17.20;13.30;;;;;;;35.48;42.17;100082.56;5098144;28;20135;-70
2023/06/23 10:26:34;;;;;;;14.18;12.77;;;;;;;35.54;42.19;100078.56;5098489;28;20020;-71
2023/06/23 10:29:11;;;;;;;16.52;13.95;;;;;;;35.52;42.10;100055.72;5096574;28;20039;-70
2023/06/23 10:31:40;;;;;;;18.02;14.43;;;;;;;35.62;41.14;100063.91;5091698;28;20048;-71
2023/06/23 10:34:12;;;;;;;16.15;14.50;;;;;;;35.70;40.70;100073.56;5103057;28;20034;-70
2023/06/23 10:36:40;;;;;;;14.93;13.52;;;;;;;35.72;40.33;100066.53;5090919;28;20031;-71
2023/06/23 10:39:07;;;;;;;19.60;14.98;;;;;;;35.75;40.50;100065.91;5091575;28;20094;-70
2023/06/23 10:41:34;;;;;;;16.58;14.95;;;;;;;35.80;40.76;100065.88;5099789;28;20532;-70
2023/06/23 10:44:03;;;;;;;18.58;15.50;;;;;;;35.87;41.15;100068.25;5103047;28;20114;-70
2023/06/23 10:46:29;;;;;;;16.67;14.95;;;;;;;35.89;41.39;100058.44;5098415;28;20038;-70
2023/06/23 10:48:56;;;;;;;18.67;15.98;;;;;;;35.95;41.00;100068.38;5090224;28;20028;-70
2023/06/23 10:51:24;;;;;;;18.13;16.10;;;;;;;35.95;40.71;100059.19;5086708;28;20466;-71
2023/06/23 10:53:57;;;;;;;17.55;15.70;;;;;;;36.03;40.36;100075.22;5099358;28;20020;-71
2023/06/23 10:56:30;;;;;;;20.85;15.00;;;;;;;36.03;39.96;100061.25;5099585;28;20028;-71
2023/06/23 10:58:55;;;;;;;17.33;14.75;;;;;;;35.98;39.54;100058.56;5102637;28;20051;-71
2023/06/23 11:01:21;;;;;;;21.70;15.52;;;;;;;35.95;40.04;100054.41;5097667;28;20058;-71
2023/06/23 11:03:56;;;;;;;19.23;15.30;;;;;;;35.88;40.43;100062.34;5092734;28;20076;-71
2023/06/23 11:06:34;;;;;;;17.25;15.23;;;;;;;35.88;40.45;100065.16;5090469;28;20028;-71
2023/06/23 11:09:01;;;;;;;17.23;15.35;;;;;;;35.91;40.22;100064.53;5096185;28;20387;-71
2023/06/23 11:11:33;;;;;;;19.73;16.38;;;;;;;35.87;40.19;100049.53;5083716;28;20054;-71
2023/06/23 11:14:00;;;;;;;20.67;16.53;;;;;;;35.99;40.25;100060.22;5092754;28;20063;-71
2023/06/23 11:16:32;;;;;;;22.80;16.40;;;;;;;36.01;40.36;100053.19;5098808;28;20016;-72